sensor_id;sensor_type;location;lat;lon;timestamp;pressure;altitude;pressure_sealevel;temperature;humidity
47154;BME280;32907;41.412;2.164;2023-11-21T00:01:04;100429.41;;;21.25;48.47
47154;BME280;32907;41.412;2.164;2023-11-21T00:03:33;100437.75;;;21.34;48.60
47154;BME280;32907;41.412;2.164;2023-11-21T00:06:01;100438.56;;;21.34;48.71
47154;BME280;32907;41.412;2.164;2023-11-21T00:08:30;100435.28;;;21.32;48.77
47154;BME280;32907;41.412;2.164;2023-11-21T00:10:58;100421.16;;;21.30;48.80
47154;BME280;32907;41.412;2.164;2023-11-21T00:13:28;100423.00;;;21.35;48.40
47154;BME280;32907;41.412;2.164;2023-11-21T00:15:56;100415.31;;;21.37;48.58
47154;BME280;32907;41.412;2.164;2023-11-21T00:18:24;100417.72;;;21.38;48.63
47154;BME280;32907;41.412;2.164;2023-11-21T00:20:52;100413.88;;;21.39;48.71
47154;BME280;32907;41.412;2.164;2023-11-21T00:23:21;100412.91;;;21.35;48.59
47154;BME280;32907;41.412;2.164;2023-11-21T00:25:49;100413.69;;;21.36;48.57
47154;BME280;32907;41.412;2.164;2023-11-21T00:28:17;100410.66;;;21.37;48.57
47154;BME280;32907;41.412;2.164;2023-11-21T00:30:45;100385.63;;;21.35;48.36
47154;BME280;32907;41.412;2.164;2023-11-21T00:33:14;100395.41;;;21.36;48.23
47154;BME280;32907;41.412;2.164;2023-11-21T00:35:42;100387.31;;;21.31;48.46
47154;BME280;32907;41.412;2.164;2023-11-21T00:38:10;100390.53;;;21.33;48.47
47154;BME280;32907;41.412;2.164;2023-11-21T00:40:38;100389.47;;;21.34;48.51
47154;BME280;32907;41.412;2.164;2023-11-21T00:43:06;100388.84;;;21.37;48.66
47154;BME280;32907;41.412;2.164;2023-11-21T00:45:34;100385.00;;;21.38;48.26
47154;BME280;32907;41.412;2.164;2023-11-21T00:48:04;100375.19;;;21.37;48.26
47154;BME280;32907;41.412;2.164;2023-11-21T00:50:32;100374.72;;;21.35;48.54
47154;BME280;32907;41.412;2.164;2023-11-21T00:53:01;100380.34;;;21.39;48.30
47154;BME280;32907;41.412;2.164;2023-11-21T00:55:30;100381.16;;;21.39;48.20
47154;BME280;32907;41.412;2.164;2023-11-21T00:57:58;100370.38;;;21.34;48.38
47154;BME280;32907;41.412;2.164;2023-11-21T01:00:27;100365.41;;;21.36;48.44
47154;BME280;32907;41.412;2.164;2023-11-21T01:02:56;100362.19;;;21.34;48.17
47154;BME280;32907;41.412;2.164;2023-11-21T01:05:24;100360.75;;;21.37;48.64
47154;BME280;32907;41.412;2.164;2023-11-21T01:07:52;100363.50;;;21.37;48.67
47154;BME280;32907;41.412;2.164;2023-11-21T01:10:20;100363.78;;;21.35;48.48
47154;BME280;32907;41.412;2.164;2023-11-21T01:12:49;100366.00;;;21.33;48.70
47154;BME280;32907;41.412;2.164;2023-11-21T01:15:17;100364.38;;;21.32;48.47
47154;BME280;32907;41.412;2.164;2023-11-21T01:17:45;100353.47;;;21.32;48.76
47154;BME280;32907;41.412;2.164;2023-11-21T01:20:13;100350.16;;;21.35;48.38
47154;BME280;32907;41.412;2.164;2023-11-21T01:22:41;100346.31;;;21.36;48.55
47154;BME280;32907;41.412;2.164;2023-11-21T01:25:10;100305.28;;;21.14;48.43
47154;BME280;32907;41.412;2.164;2023-11-21T01:27:38;100343.28;;;21.38;48.64
47154;BME280;32907;41.412;2.164;2023-11-21T01:30:06;100344.69;;;21.35;48.42
47154;BME280;32907;41.412;2.164;2023-11-21T01:32:36;100336.00;;;21.33;48.88
47154;BME280;32907;41.412;2.164;2023-11-21T01:35:05;100336.00;;;21.33;48.56
47154;BME280;32907;41.412;2.164;2023-11-21T01:37:38;100330.53;;;21.33;48.51
47154;BME280;32907;41.412;2.164;2023-11-21T01:40:07;100312.69;;;21.27;48.64
47154;BME280;32907;41.412;2.164;2023-11-21T01:42:38;100332.19;;;21.34;48.61
47154;BME280;32907;41.412;2.164;2023-11-21T01:45:08;100326.72;;;21.34;48.78
47154;BME280;32907;41.412;2.164;2023-11-21T01:47:37;100343.91;;;21.35;48.82
47154;BME280;32907;41.412;2.164;2023-11-21T01:50:09;100341.44;;;21.33;48.40
47154;BME280;32907;41.412;2.164;2023-11-21T01:52:41;100335.50;;;21.31;48.76
47154;BME280;32907;41.412;2.164;2023-11-21T01:55:10;100335.31;;;21.28;48.57
47154;BME280;32907;41.412;2.164;2023-11-21T01:57:43;100324.41;;;21.28;48.70
47154;BME280;32907;41.412;2.164;2023-11-21T02:00:12;100315.56;;;21.17;48.93
47154;BME280;32907;41.412;2.164;2023-11-21T02:02:47;100326.88;;;21.24;48.99
47154;BME280;32907;41.412;2.164;2023-11-21T02:05:17;100328.81;;;21.23;49.86
47154;BME280;32907;41.412;2.164;2023-11-21T02:07:46;100330.72;;;21.23;49.60
47154;BME280;32907;41.412;2.164;2023-11-21T02:10:16;100325.28;;;21.23;50.01
47154;BME280;32907;41.412;2.164;2023-11-21T02:12:45;100320.44;;;21.20;50.14
47154;BME280;32907;41.412;2.164;2023-11-21T02:15:14;100321.75;;;21.22;50.28
47154;BME280;32907;41.412;2.164;2023-11-21T02:17:50;100318.22;;;21.22;50.26
47154;BME280;32907;41.412;2.164;2023-11-21T02:20:22;100311.44;;;21.19;50.30
47154;BME280;32907;41.412;2.164;2023-11-21T02:22:51;100302.56;;;21.14;51.08
47154;BME280;32907;41.412;2.164;2023-11-21T02:25:35;100291.56;;;21.19;50.89
47154;BME280;32907;41.412;2.164;2023-11-21T02:28:05;100285.78;;;21.20;50.66
47154;BME280;32907;41.412;2.164;2023-11-21T02:30:35;100286.59;;;21.21;51.12
47154;BME280;32907;41.412;2.164;2023-11-21T02:33:05;100285.78;;;21.20;51.09
47154;BME280;32907;41.412;2.164;2023-11-21T02:35:34;100287.41;;;21.21;51.36
47154;BME280;32907;41.412;2.164;2023-11-21T02:38:02;100279.53;;;21.20;51.15
47154;BME280;32907;41.412;2.164;2023-11-21T02:40:30;100272.66;;;21.22;51.22
47154;BME280;32907;41.412;2.164;2023-11-21T02:42:59;100261.56;;;21.19;51.14
47154;BME280;32907;41.412;2.164;2023-11-21T02:45:27;100266.72;;;21.20;51.34
47154;BME280;32907;41.412;2.164;2023-11-21T02:47:56;100259.81;;;21.23;51.70
47154;BME280;32907;41.412;2.164;2023-11-21T02:50:26;100264.16;;;21.24;51.11
47154;BME280;32907;41.412;2.164;2023-11-21T02:52:55;100269.63;;;21.24;51.23
47154;BME280;32907;41.412;2.164;2023-11-21T02:55:26;100270.66;;;21.28;51.61
47154;BME280;32907;41.412;2.164;2023-11-21T02:57:54;100261.38;;;21.29;51.29
47154;BME280;32907;41.412;2.164;2023-11-21T03:00:24;100254.31;;;21.28;51.75
47154;BME280;32907;41.412;2.164;2023-11-21T03:02:55;100252.13;;;21.25;52.30
47154;BME280;32907;41.412;2.164;2023-11-21T03:05:23;100249.22;;;21.21;52.21
47154;BME280;32907;41.412;2.164;2023-11-21T03:07:51;100248.13;;;21.22;52.01
47154;BME280;32907;41.412;2.164;2023-11-21T03:10:19;100246.81;;;21.20;52.12
47154;BME280;32907;41.412;2.164;2023-11-21T03:12:48;100258.22;;;21.22;52.36
47154;BME280;32907;41.412;2.164;2023-11-21T03:15:16;100252.84;;;21.17;52.60
47154;BME280;32907;41.412;2.164;2023-11-21T03:17:44;100246.31;;;21.18;52.55
47154;BME280;32907;41.412;2.164;2023-11-21T03:20:13;100243.59;;;21.18;52.47
47154;BME280;32907;41.412;2.164;2023-11-21T03:22:41;100235.91;;;21.20;52.45
47154;BME280;32907;41.412;2.164;2023-11-21T03:25:09;100227.72;;;21.20;52.34
47154;BME280;32907;41.412;2.164;2023-11-21T03:27:39;100219.97;;;21.13;52.54
47154;BME280;32907;41.412;2.164;2023-11-21T03:30:08;100224.69;;;21.21;52.69
47154;BME280;32907;41.412;2.164;2023-11-21T03:32:37;100223.38;;;21.19;52.67
47154;BME280;32907;41.412;2.164;2023-11-21T03:35:05;100232.06;;;21.21;52.48
47154;BME280;32907;41.412;2.164;2023-11-21T03:37:34;100227.41;;;21.21;52.48
47154;BME280;32907;41.412;2.164;2023-11-21T03:40:03;100227.41;;;21.21;52.30
47154;BME280;32907;41.412;2.164;2023-11-21T03:42:32;100222.88;;;21.17;51.42
47154;BME280;32907;41.412;2.164;2023-11-21T03:45:00;100210.56;;;21.06;50.91
47154;BME280;32907;41.412;2.164;2023-11-21T03:47:28;100223.38;;;21.19;50.51
47154;BME280;32907;41.412;2.164;2023-11-21T03:49:57;100231.03;;;21.17;49.76
47154;BME280;32907;41.412;2.164;2023-11-21T03:52:26;100230.06;;;21.13;49.35
47154;BME280;32907;41.412;2.164;2023-11-21T03:54:55;100222.50;;;21.10;48.99
47154;BME280;32907;41.412;2.164;2023-11-21T03:57:25;100219.47;;;21.11;48.90
47154;BME280;32907;41.412;2.164;2023-11-21T03:59:55;100215.94;;;21.11;48.12
47154;BME280;32907;41.412;2.164;2023-11-21T04:02:23;100211.88;;;21.08;47.39
47154;BME280;32907;41.412;2.164;2023-11-21T04:04:54;100214.91;;;21.07;47.09
47154;BME280;32907;41.412;2.164;2023-11-21T04:07:22;100212.19;;;21.07;46.80
47154;BME280;32907;41.412;2.164;2023-11-21T04:09:50;100217.34;;;21.08;45.97
47154;BME280;32907;41.412;2.164;2023-11-21T04:12:19;100222.69;;;21.00;44.47
47154;BME280;32907;41.412;2.164;2023-11-21T04:14:47;100219.97;;;21.00;45.08
47154;BME280;32907;41.412;2.164;2023-11-21T04:17:18;100214.53;;;21.00;44.47
47154;BME280;32907;41.412;2.164;2023-11-21T04:19:46;100223.00;;;20.98;44.05
47154;BME280;32907;41.412;2.164;2023-11-21T04:22:14;100206.47;;;20.94;43.56
47154;BME280;32907;41.412;2.164;2023-11-21T04:24:42;100214.34;;;20.96;44.02
47154;BME280;32907;41.412;2.164;2023-11-21T04:27:10;100207.06;;;20.91;43.43
47154;BME280;32907;41.412;2.164;2023-11-21T04:29:38;100210.31;;;20.93;42.98
47154;BME280;32907;41.412;2.164;2023-11-21T04:32:06;100204.03;;;20.93;42.88
47154;BME280;32907;41.412;2.164;2023-11-21T04:34:36;100197.75;;;20.92;42.95
47154;BME280;32907;41.412;2.164;2023-11-21T04:37:04;100203.22;;;20.92;42.76
47154;BME280;32907;41.412;2.164;2023-11-21T04:39:34;100201.28;;;20.93;42.65
47154;BME280;32907;41.412;2.164;2023-11-21T04:42:02;100190.31;;;20.84;42.88
47154;BME280;32907;41.412;2.164;2023-11-21T04:44:30;100195.56;;;20.94;42.90
47154;BME280;32907;41.412;2.164;2023-11-21T04:46:58;100193.81;;;20.99;42.85
47154;BME280;32907;41.412;2.164;2023-11-21T04:49:26;100203.63;;;21.00;42.38
47154;BME280;32907;41.412;2.164;2023-11-21T04:51:54;100207.28;;;20.95;42.03
47154;BME280;32907;41.412;2.164;2023-11-21T04:54:22;100210.09;;;20.90;41.96
47154;BME280;32907;41.412;2.164;2023-11-21T04:56:54;100155.53;;;20.54;42.93
47154;BME280;32907;41.412;2.164;2023-11-21T04:59:23;100210.91;;;20.90;42.39
47154;BME280;32907;41.412;2.164;2023-11-21T05:01:53;100208.50;;;20.89;41.73
47154;BME280;32907;41.412;2.164;2023-11-21T05:04:21;100209.91;;;20.86;41.52
47154;BME280;32907;41.412;2.164;2023-11-21T05:06:50;100227.38;;;20.85;41.77
47154;BME280;32907;41.412;2.164;2023-11-21T05:09:18;100227.06;;;20.87;42.25
47154;BME280;32907;41.412;2.164;2023-11-21T05:11:46;100231.09;;;20.89;42.04
47154;BME280;32907;41.412;2.164;2023-11-21T05:14:14;100249.69;;;20.87;42.08
47154;BME280;32907;41.412;2.164;2023-11-21T05:16:42;100249.88;;;20.91;42.02
47154;BME280;32907;41.412;2.164;2023-11-21T05:19:10;100260.47;;;20.92;42.33
47154;BME280;32907;41.412;2.164;2023-11-21T05:21:41;100248.66;;;20.97;42.30
47154;BME280;32907;41.412;2.164;2023-11-21T05:24:09;100260.84;;;21.00;42.77
47154;BME280;32907;41.412;2.164;2023-11-21T05:26:37;100266.31;;;21.00;43.38
47154;BME280;32907;41.412;2.164;2023-11-21T05:29:06;100268.22;;;20.99;43.24
47154;BME280;32907;41.412;2.164;2023-11-21T05:31:34;100280.16;;;21.03;43.33
47154;BME280;32907;41.412;2.164;2023-11-21T05:34:03;100280.16;;;21.03;43.81
47154;BME280;32907;41.412;2.164;2023-11-21T05:36:32;100284.38;;;21.09;44.43
47154;BME280;32907;41.412;2.164;2023-11-21T05:39:01;100270.06;;;21.04;44.68
47154;BME280;32907;41.412;2.164;2023-11-21T05:41:30;100271.25;;;21.11;46.10
47154;BME280;32907;41.412;2.164;2023-11-21T05:43:58;100285.09;;;21.15;46.35
47154;BME280;32907;41.412;2.164;2023-11-21T05:46:26;100277.53;;;21.12;46.90
47154;BME280;32907;41.412;2.164;2023-11-21T05:48:55;100290.84;;;21.13;47.46
47154;BME280;32907;41.412;2.164;2023-11-21T05:51:24;100296.78;;;21.15;47.14
47154;BME280;32907;41.412;2.164;2023-11-21T05:53:52;100295.50;;;21.13;47.73
47154;BME280;32907;41.412;2.164;2023-11-21T05:56:20;100311.22;;;21.16;47.75
47154;BME280;32907;41.412;2.164;2023-11-21T05:58:48;100306.91;;;21.15;48.00
47154;BME280;32907;41.412;2.164;2023-11-21T06:01:16;100312.84;;;21.17;48.34
47154;BME280;32907;41.412;2.164;2023-11-21T06:03:44;100314.50;;;21.18;48.40
47154;BME280;32907;41.412;2.164;2023-11-21T06:06:13;100310.44;;;21.15;48.62
47154;BME280;32907;41.412;2.164;2023-11-21T06:08:41;100316.38;;;21.17;48.89
47154;BME280;32907;41.412;2.164;2023-11-21T06:11:10;100319.09;;;21.17;48.93
47154;BME280;32907;41.412;2.164;2023-11-21T06:13:39;100324.28;;;21.19;48.70
47154;BME280;32907;41.412;2.164;2023-11-21T06:16:07;100325.97;;;21.15;48.98
47154;BME280;32907;41.412;2.164;2023-11-21T06:18:36;100332.47;;;21.19;48.82
47154;BME280;32907;41.412;2.164;2023-11-21T06:21:04;100324.28;;;21.19;48.95
47154;BME280;32907;41.412;2.164;2023-11-21T06:23:32;100334.16;;;21.15;49.81
47154;BME280;32907;41.412;2.164;2023-11-21T06:26:00;100342.97;;;21.12;49.29
47154;BME280;32907;41.412;2.164;2023-11-21T06:28:29;100350.03;;;21.13;49.43
47154;BME280;32907;41.412;2.164;2023-11-21T06:30:57;100345.19;;;21.10;49.78
47154;BME280;32907;41.412;2.164;2023-11-21T06:33:32;100359.00;;;21.13;50.16
47154;BME280;32907;41.412;2.164;2023-11-21T06:36:01;100373.44;;;21.14;50.14
47154;BME280;32907;41.412;2.164;2023-11-21T06:38:33;100383.56;;;21.13;50.30
47154;BME280;32907;41.412;2.164;2023-11-21T06:41:02;100379.53;;;21.11;50.57
47154;BME280;32907;41.412;2.164;2023-11-21T06:43:32;100387.09;;;21.14;50.71
47154;BME280;32907;41.412;2.164;2023-11-21T06:46:00;100379.41;;;21.16;51.05
47154;BME280;32907;41.412;2.164;2023-11-21T06:48:28;100385.97;;;21.15;51.31
47154;BME280;32907;41.412;2.164;2023-11-21T06:50:57;100396.88;;;21.15;52.07
47154;BME280;32907;41.412;2.164;2023-11-21T06:53:25;100398.00;;;21.14;52.39
47154;BME280;32907;41.412;2.164;2023-11-21T06:55:53;100410.81;;;21.13;52.33
47154;BME280;32907;41.412;2.164;2023-11-21T06:58:22;100406.78;;;21.11;53.18
47154;BME280;32907;41.412;2.164;2023-11-21T07:00:50;100406.78;;;21.11;52.90
47154;BME280;32907;41.412;2.164;2023-11-21T07:03:22;100408.47;;;21.07;52.80
47154;BME280;32907;41.412;2.164;2023-11-21T07:05:52;100407.66;;;21.06;52.49
47154;BME280;32907;41.412;2.164;2023-11-21T07:08:19;100412.63;;;21.04;52.17
47154;BME280;32907;41.412;2.164;2023-11-21T07:10:47;100399.28;;;20.89;52.39
47154;BME280;32907;41.412;2.164;2023-11-21T07:13:16;100428.56;;;20.97;52.72
47154;BME280;32907;41.412;2.164;2023-11-21T07:15:44;100432.41;;;20.96;52.49
47154;BME280;32907;41.412;2.164;2023-11-21T07:18:13;100426.94;;;20.96;52.31
47154;BME280;32907;41.412;2.164;2023-11-21T07:20:41;100434.31;;;20.95;52.39
47154;BME280;32907;41.412;2.164;2023-11-21T07:23:09;100432.41;;;20.96;53.18
47154;BME280;32907;41.412;2.164;2023-11-21T07:25:38;100434.31;;;20.95;52.45
47154;BME280;32907;41.412;2.164;2023-11-21T07:28:06;100440.06;;;20.94;52.00
47154;BME280;32907;41.412;2.164;2023-11-21T07:30:34;100441.47;;;20.91;51.66
47154;BME280;32907;41.412;2.164;2023-11-21T07:33:03;100442.28;;;20.92;51.32
47154;BME280;32907;41.412;2.164;2023-11-21T07:35:31;100440.97;;;20.89;51.71
47154;BME280;32907;41.412;2.164;2023-11-21T07:37:59;100452.47;;;20.86;51.90
47154;BME280;32907;41.412;2.164;2023-11-21T07:40:28;100445.91;;;20.87;51.73
47154;BME280;32907;41.412;2.164;2023-11-21T07:42:58;100431.63;;;20.77;51.70
47154;BME280;32907;41.412;2.164;2023-11-21T07:45:28;100438.03;;;20.86;51.55
47154;BME280;32907;41.412;2.164;2023-11-21T07:47:56;100440.75;;;20.86;51.12
47154;BME280;32907;41.412;2.164;2023-11-21T07:50:25;100438.84;;;20.86;51.49
47154;BME280;32907;41.412;2.164;2023-11-21T07:52:54;100448.63;;;20.87;51.30
47154;BME280;32907;41.412;2.164;2023-11-21T07:55:22;100440.47;;;20.87;51.28
47154;BME280;32907;41.412;2.164;2023-11-21T07:57:50;100451.34;;;20.87;50.94
47154;BME280;32907;41.412;2.164;2023-11-21T08:00:18;100454.09;;;20.87;51.14
47154;BME280;32907;41.412;2.164;2023-11-21T08:02:49;100462.25;;;20.87;50.88
47154;BME280;32907;41.412;2.164;2023-11-21T08:05:17;100445.41;;;20.85;50.67
47154;BME280;32907;41.412;2.164;2023-11-21T08:07:54;100434.78;;;20.84;50.69
47154;BME280;32907;41.412;2.164;2023-11-21T08:10:23;100444.19;;;20.91;50.37
47154;BME280;32907;41.412;2.164;2023-11-21T08:12:51;100452.78;;;20.99;50.48
47154;BME280;32907;41.412;2.164;2023-11-21T08:15:19;100467.97;;;21.05;50.11
47154;BME280;32907;41.412;2.164;2023-11-21T08:17:47;100464.97;;;21.20;50.53
47154;BME280;32907;41.412;2.164;2023-11-21T08:20:16;100470.06;;;21.40;49.93
47154;BME280;32907;41.412;2.164;2023-11-21T08:22:46;100469.69;;;21.61;48.86
47154;BME280;32907;41.412;2.164;2023-11-21T08:27:45;100463.78;;;21.81;48.20
47154;BME280;32907;41.412;2.164;2023-11-21T08:30:13;100451.97;;;21.72;48.08
47154;BME280;32907;41.412;2.164;2023-11-21T08:32:42;100450.66;;;21.69;48.09
47154;BME280;32907;41.412;2.164;2023-11-21T08:35:10;100460.16;;;21.72;47.97
47154;BME280;32907;41.412;2.164;2023-11-21T08:37:39;100472.50;;;21.69;48.29
47154;BME280;32907;41.412;2.164;2023-11-21T08:40:08;100472.81;;;21.68;48.25
47154;BME280;32907;41.412;2.164;2023-11-21T08:42:37;100463.50;;;21.69;48.04
47154;BME280;32907;41.412;2.164;2023-11-21T08:45:05;100457.56;;;21.67;47.95
47154;BME280;32907;41.412;2.164;2023-11-21T08:47:36;100458.66;;;21.66;47.89
47154;BME280;32907;41.412;2.164;2023-11-21T08:50:08;100447.03;;;21.60;47.61
47154;BME280;32907;41.412;2.164;2023-11-21T08:52:36;100449.47;;;21.62;47.42
47154;BME280;32907;41.412;2.164;2023-11-21T08:55:05;100461.00;;;21.59;47.94
47154;BME280;32907;41.412;2.164;2023-11-21T08:57:36;100460.47;;;21.57;47.58
47154;BME280;32907;41.412;2.164;2023-11-21T09:00:06;100473.59;;;21.55;47.78
47154;BME280;32907;41.412;2.164;2023-11-21T09:02:40;100467.97;;;21.51;47.57
47154;BME280;32907;41.412;2.164;2023-11-21T09:05:12;100471.81;;;21.50;47.50
47154;BME280;32907;41.412;2.164;2023-11-21T09:07:42;100465.63;;;21.44;47.31
47154;BME280;32907;41.412;2.164;2023-11-21T09:10:10;100462.97;;;21.39;47.29
47154;BME280;32907;41.412;2.164;2023-11-21T09:12:38;100475.09;;;21.33;47.20
47154;BME280;32907;41.412;2.164;2023-11-21T09:15:07;100485.00;;;21.29;48.12
47154;BME280;32907;41.412;2.164;2023-11-21T09:17:37;100476.59;;;21.26;47.59
47154;BME280;32907;41.412;2.164;2023-11-21T09:20:07;100474.75;;;21.21;47.42
47154;BME280;32907;41.412;2.164;2023-11-21T09:22:38;100475.38;;;21.18;48.06
47154;BME280;32907;41.412;2.164;2023-11-21T09:25:08;100472.22;;;21.11;47.88
47154;BME280;32907;41.412;2.164;2023-11-21T09:27:36;100476.13;;;21.05;47.76
47154;BME280;32907;41.412;2.164;2023-11-21T09:30:05;100476.53;;;20.98;48.32
47154;BME280;32907;41.412;2.164;2023-11-21T09:32:37;100467.84;;;20.96;48.00
47154;BME280;32907;41.412;2.164;2023-11-21T09:35:06;100469.16;;;20.99;47.93
47154;BME280;32907;41.412;2.164;2023-11-21T09:37:37;100469.16;;;20.99;47.90
47154;BME280;32907;41.412;2.164;2023-11-21T09:40:10;100475.41;;;20.99;47.33
47154;BME280;32907;41.412;2.164;2023-11-21T09:43:02;100466.41;;;20.99;47.37
47154;BME280;32907;41.412;2.164;2023-11-21T09:45:35;100466.22;;;20.95;47.18
47154;BME280;32907;41.412;2.164;2023-11-21T09:48:05;100459.97;;;20.94;47.06
47154;BME280;32907;41.412;2.164;2023-11-21T09:50:36;100458.03;;;20.95;46.93
47154;BME280;32907;41.412;2.164;2023-11-21T09:53:17;100452.59;;;20.95;46.69
47154;BME280;32907;41.412;2.164;2023-11-21T09:55:51;100446.34;;;20.94;45.85
47154;BME280;32907;41.412;2.164;2023-11-21T09:58:20;100449.06;;;20.94;45.81
47154;BME280;32907;41.412;2.164;2023-11-21T10:00:53;100443.06;;;20.92;45.72
47154;BME280;32907;41.412;2.164;2023-11-21T10:03:21;100449.56;;;20.97;44.90
47154;BME280;32907;41.412;2.164;2023-11-21T10:05:50;100449.56;;;20.97;44.12
47154;BME280;32907;41.412;2.164;2023-11-21T10:08:20;100449.34;;;20.93;43.83
47154;BME280;32907;41.412;2.164;2023-11-21T10:10:53;100446.59;;;20.93;43.85
47154;BME280;32907;41.412;2.164;2023-11-21T10:13:21;100445.31;;;20.90;43.78
47154;BME280;32907;41.412;2.164;2023-11-21T10:15:51;100447.72;;;20.92;42.15
47154;BME280;32907;41.412;2.164;2023-11-21T10:18:21;100446.91;;;20.91;42.60
47154;BME280;32907;41.412;2.164;2023-11-21T10:20:53;100452.97;;;20.88;42.15
47154;BME280;32907;41.412;2.164;2023-11-21T10:23:22;100457.91;;;20.86;42.02
47154;BME280;32907;41.412;2.164;2023-11-21T10:25:52;100451.13;;;20.84;41.76
47154;BME280;32907;41.412;2.164;2023-11-21T10:28:22;100398.06;;;20.49;41.45
47154;BME280;32907;41.412;2.164;2023-11-21T10:30:50;100448.13;;;20.85;41.90
47154;BME280;32907;41.412;2.164;2023-11-21T10:33:27;100437.31;;;20.80;41.70
47154;BME280;32907;41.412;2.164;2023-11-21T10:35:56;100443.19;;;20.87;41.74
47154;BME280;32907;41.412;2.164;2023-11-21T10:38:24;100425.41;;;20.90;41.97
47154;BME280;32907;41.412;2.164;2023-11-21T10:40:55;100423.50;;;20.90;41.95
47154;BME280;32907;41.412;2.164;2023-11-21T10:43:26;100419.16;;;20.89;41.74
47154;BME280;32907;41.412;2.164;2023-11-21T10:45:57;100421.28;;;20.92;42.50
47154;BME280;32907;41.412;2.164;2023-11-21T10:48:27;100423.19;;;20.92;42.18
47154;BME280;32907;41.412;2.164;2023-11-21T10:50:55;100437.13;;;20.90;41.40
47154;BME280;32907;41.412;2.164;2023-11-21T10:53:28;100432.16;;;20.92;40.59
47154;BME280;32907;41.412;2.164;2023-11-21T10:56:06;100426.13;;;20.95;40.22
47154;BME280;32907;41.412;2.164;2023-11-21T10:58:36;100418.47;;;20.98;40.24
47154;BME280;32907;41.412;2.164;2023-11-21T11:01:06;100422.81;;;20.99;39.66
47154;BME280;32907;41.412;2.164;2023-11-21T11:03:36;100409.69;;;21.01;39.13
47154;BME280;32907;41.412;2.164;2023-11-21T11:06:05;100396.66;;;20.98;39.29
47154;BME280;32907;41.412;2.164;2023-11-21T11:08:35;100394.44;;;21.00;39.36
47154;BME280;32907;41.412;2.164;2023-11-21T11:11:07;100402.53;;;21.05;38.22
47154;BME280;32907;41.412;2.164;2023-11-21T11:13:37;100402.53;;;21.05;38.57
47154;BME280;32907;41.412;2.164;2023-11-21T11:16:08;100409.28;;;21.07;38.78
47154;BME280;32907;41.412;2.164;2023-11-21T11:18:38;100404.56;;;21.13;38.93
47154;BME280;32907;41.412;2.164;2023-11-21T11:21:25;100393.03;;;21.16;37.57
47154;BME280;32907;41.412;2.164;2023-11-21T11:33:11;100360.94;;;21.13;36.39
47154;BME280;32907;41.412;2.164;2023-11-21T11:35:55;100347.91;;;21.10;36.70
47154;BME280;32907;41.412;2.164;2023-11-21T11:38:28;100355.25;;;21.09;37.93
47154;BME280;32907;41.412;2.164;2023-11-21T11:41:04;100362.63;;;21.09;35.92
47154;BME280;32907;41.412;2.164;2023-11-21T11:43:33;100354.44;;;21.09;36.39
47154;BME280;32907;41.412;2.164;2023-11-21T11:46:08;100351.22;;;21.07;37.35
47154;BME280;32907;41.412;2.164;2023-11-21T11:48:39;100346.81;;;21.11;37.75
47154;BME280;32907;41.412;2.164;2023-11-21T11:51:11;100338.19;;;21.17;37.08
47154;BME280;32907;41.412;2.164;2023-11-21T11:53:46;100331.44;;;21.15;36.62
47154;BME280;32907;41.412;2.164;2023-11-21T11:56:31;100333.66;;;21.13;36.35
47154;BME280;32907;41.412;2.164;2023-11-21T11:59:02;100334.47;;;21.13;37.02
47154;BME280;32907;41.412;2.164;2023-11-21T12:01:33;100329.03;;;21.13;37.38
47154;BME280;32907;41.412;2.164;2023-11-21T12:06:41;100313.66;;;21.17;37.73
47154;BME280;32907;41.412;2.164;2023-11-21T12:09:18;100312.75;;;21.22;37.63
47154;BME280;32907;41.412;2.164;2023-11-21T12:11:48;100310.53;;;21.24;37.39
47154;BME280;32907;41.412;2.164;2023-11-21T12:14:17;100321.69;;;21.28;38.44
47154;BME280;32907;41.412;2.164;2023-11-21T12:16:45;100308.22;;;21.31;38.17
47154;BME280;32907;41.412;2.164;2023-11-21T12:19:14;100303.25;;;21.33;37.75
47154;BME280;32907;41.412;2.164;2023-11-21T12:21:42;100291.97;;;21.26;38.17
47154;BME280;32907;41.412;2.164;2023-11-21T12:24:12;100300.75;;;21.37;37.89
47154;BME280;32907;41.412;2.164;2023-11-21T12:26:42;100297.72;;;21.38;38.26
47154;BME280;32907;41.412;2.164;2023-11-21T12:29:11;100298.81;;;21.37;37.51
47154;BME280;32907;41.412;2.164;2023-11-21T12:31:40;100300.44;;;21.38;37.67
47154;BME280;32907;41.412;2.164;2023-11-21T12:34:08;100289.03;;;21.36;37.78
47154;BME280;32907;41.412;2.164;2023-11-21T12:36:39;100301.25;;;21.39;37.88
47154;BME280;32907;41.412;2.164;2023-11-21T12:39:08;100304.19;;;21.42;38.97
47154;BME280;32907;41.412;2.164;2023-11-21T12:41:38;100299.72;;;21.46;39.37
47154;BME280;32907;41.412;2.164;2023-11-21T12:44:12;100296.09;;;21.51;39.59
47154;BME280;32907;41.412;2.164;2023-11-21T12:46:42;100296.25;;;21.55;40.21
47154;BME280;32907;41.412;2.164;2023-11-21T12:49:13;100286.66;;;21.57;40.05
47154;BME280;32907;41.412;2.164;2023-11-21T12:51:46;100277.97;;;21.55;39.99
47154;BME280;32907;41.412;2.164;2023-11-21T12:54:14;100270.50;;;21.61;40.05
47154;BME280;32907;41.412;2.164;2023-11-21T12:56:45;100264.09;;;21.65;39.23
47154;BME280;32907;41.412;2.164;2023-11-21T12:59:15;100264.09;;;21.65;39.47
47154;BME280;32907;41.412;2.164;2023-11-21T13:01:46;100237.47;;;21.48;39.51
47154;BME280;32907;41.412;2.164;2023-11-21T13:04:15;100261.88;;;21.67;39.45
47154;BME280;32907;41.412;2.164;2023-11-21T13:06:43;100267.34;;;21.67;38.77
47154;BME280;32907;41.412;2.164;2023-11-21T13:09:11;100263.28;;;21.65;38.21
47154;BME280;32907;41.412;2.164;2023-11-21T13:11:44;100256.75;;;21.66;38.34
47154;BME280;32907;41.412;2.164;2023-11-21T13:14:13;100259.97;;;21.68;38.34
47154;BME280;32907;41.412;2.164;2023-11-21T13:16:42;100254.50;;;21.68;38.38